Time;durP1;ratioP1;P1;durP2;ratioP2;P2;SDS_P1;SDS_P2;PMS_P1;PMS_P2;Temp;Humidity;BMP_temperature;BMP_pressure;BME280_temperature;BME280_humidity;BME280_pressure;Samples;Min_cycle;Max_cycle;Signal;HPM_P1;HPM_P2
2023/08/16 17:45:39;;;;;;;9.48;7.65;;;;;;;25.12;100.00;94670.72;4899857;29;20047;-90
2023/08/16 17:48:05;;;;;;;10.52;7.22;;;;;;;24.92;100.00;94673.38;4900293;29;20048;-89
2023/08/16 17:50:30;;;;;;;11.35;7.15;;;;;;;25.23;100.00;94673.59;4884979;29;20044;-90
2023/08/16 17:52:55;;;;;;;11.70;7.80;;;;;;;24.69;100.00;94671.38;4887783;29;20048;-90
2023/08/16 17:55:21;;;;;;;10.73;7.78;;;;;;;24.58;100.00;94683.75;4882334;29;20092;-91
2023/08/16 17:57:47;;;;;;;10.70;8.50;;;;;;;24.61;100.00;94680.38;4897960;29;20035;-92
2023/08/16 18:00:13;;;;;;;12.25;8.30;;;;;;;24.60;100.00;94681.50;4866373;29;20051;-92
2023/08/16 18:02:38;;;;;;;13.52;8.35;;;;;;;24.77;100.00;94683.03;4867408;29;20044;-92
2023/08/16 18:05:04;;;;;;;15.30;7.90;;;;;;;25.00;100.00;94687.69;4882172;29;20358;-91
2023/08/16 18:07:30;;;;;;;13.30;8.55;;;;;;;24.83;100.00;94681.63;4866849;29;20033;-91
2023/08/16 18:09:55;;;;;;;12.50;7.63;;;;;;;24.95;100.00;94674.59;4867185;29;20029;-91
2023/08/16 18:12:21;;;;;;;10.45;7.80;;;;;;;25.07;100.00;94687.84;4898028;29;20077;-91
2023/08/16 18:14:47;;;;;;;11.65;8.07;;;;;;;24.91;100.00;94687.91;4882082;29;20440;-91
2023/08/16 18:17:13;;;;;;;11.18;8.15;;;;;;;24.48;100.00;94687.75;4882021;29;20346;-91
2023/08/16 18:19:38;;;;;;;11.10;8.23;;;;;;;24.32;100.00;94685.09;4882243;29;20132;-92
2023/08/16 18:22:04;;;;;;;8.82;7.90;;;;;;;24.41;100.00;94692.94;4882017;29;20037;-91
2023/08/16 18:24:29;;;;;;;12.10;8.00;;;;;;;24.40;100.00;94692.16;4882190;29;20033;-91
2023/08/16 18:26:55;;;;;;;11.13;7.85;;;;;;;24.50;100.00;94700.78;4881981;29;20036;-92
2023/08/16 18:29:20;;;;;;;10.27;7.53;;;;;;;24.65;100.00;94705.31;4881748;29;20071;-90
2023/08/16 18:31:45;;;;;;;15.63;8.95;;;;;;;24.23;100.00;94704.00;4881854;29;20036;-90
2023/08/16 18:34:11;;;;;;;13.15;8.70;;;;;;;23.93;100.00;94698.28;4881922;29;20419;-91
2023/08/16 18:36:36;;;;;;;18.08;8.40;;;;;;;24.06;100.00;94707.06;4881774;29;20513;-89
2023/08/16 18:39:02;;;;;;;11.52;8.43;;;;;;;23.87;100.00;94700.44;4881884;29;20107;-90
2023/08/16 18:41:30;;;;;;;13.82;8.63;;;;;;;23.86;100.00;94709.59;4866319;29;20033;-89
2023/08/16 18:43:55;;;;;;;13.75;8.55;;;;;;;23.78;100.00;94715.91;4881672;29;20033;-89
2023/08/16 18:46:21;;;;;;;10.40;8.00;;;;;;;23.79;100.00;94715.53;4881736;29;20089;-89
2023/08/16 18:48:46;;;;;;;14.32;8.45;;;;;;;23.75;100.00;94714.66;4881948;29;20335;-89
2023/08/16 18:51:12;;;;;;;9.90;8.07;;;;;;;23.72;100.00;94715.38;4881742;29;20040;-89
2023/08/16 18:53:37;;;;;;;10.27;8.38;;;;;;;23.68;100.00;94717.94;4881726;29;20061;-89
2023/08/16 18:56:05;;;;;;;12.80;8.50;;;;;;;23.58;100.00;94721.91;4897081;29;20039;-89
2023/08/16 18:58:33;;;;;;;11.80;7.90;;;;;;;23.61;100.00;94730.34;4881594;29;20029;-89
2023/08/16 19:00:58;;;;;;;14.65;8.55;;;;;;;23.67;100.00;94726.28;4881599;29;20033;-89
2023/08/16 19:03:25;;;;;;;12.90;8.60;;;;;;;23.58;100.00;94735.28;4881565;29;20040;-88
2023/08/16 19:05:51;;;;;;;13.02;8.65;;;;;;;23.55;100.00;94735.97;4882365;29;20035;-89
2023/08/16 19:08:16;;;;;;;11.05;8.68;;;;;;;23.53;100.00;94738.19;4884422;29;20387;-89
2023/08/16 19:10:42;;;;;;;10.27;8.52;;;;;;;23.52;100.00;94733.94;4901276;29;20123;-89
2023/08/16 19:13:08;;;;;;;12.30;8.68;;;;;;;23.53;100.00;94734.72;4903355;29;20448;-89
2023/08/16 19:15:35;;;;;;;15.50;8.95;;;;;;;23.37;100.00;94737.34;4903634;29;20036;-87
2023/08/16 19:18:00;;;;;;;8.85;7.93;;;;;;;23.39;100.00;94743.91;4890603;29;20043;-88
2023/08/16 19:20:26;;;;;;;15.73;8.65;;;;;;;23.39;100.00;94751.19;4866693;29;20040;-88
2023/08/16 19:22:52;;;;;;;11.70;7.80;;;;;;;23.58;100.00;94743.28;4882183;29;20037;-88
2023/08/16 19:25:18;;;;;;;8.65;7.53;;;;;;;23.66;100.00;94746.94;4882054;29;20053;-87
2023/08/16 19:27:43;;;;;;;10.52;8.10;;;;;;;23.82;100.00;94746.19;4882063;29;20124;-87
2023/08/16 19:30:09;;;;;;;9.90;7.90;;;;;;;23.66;100.00;94746.13;4882119;29;20398;-88
2023/08/16 19:32:35;;;;;;;12.38;7.97;;;;;;;23.60;100.00;94753.66;4866577;29;20036;-87
2023/08/16 19:35:00;;;;;;;14.40;8.50;;;;;;;23.51;100.00;94755.69;4884386;29;20430;-88
2023/08/16 19:37:26;;;;;;;11.35;8.25;;;;;;;23.66;100.00;94752.28;4866117;29;20040;-87
2023/08/16 19:39:51;;;;;;;10.18;7.70;;;;;;;23.68;100.00;94752.72;4866018;29;20442;-87
2023/08/16 19:42:17;;;;;;;10.40;7.80;;;;;;;23.41;100.00;94749.69;4866249;29;20059;-87
2023/08/16 19:44:42;;;;;;;13.10;8.00;;;;;;;23.27;100.00;94760.78;4851024;29;20044;-87
2023/08/16 19:47:08;;;;;;;10.10;8.05;;;;;;;23.27;100.00;94757.31;4866180;29;20033;-88
2023/08/16 19:49:33;;;;;;;11.50;8.20;;;;;;;23.25;100.00;94754.97;4865925;29;20492;-87
2023/08/16 19:51:59;;;;;;;11.70;8.00;;;;;;;23.30;100.00;94759.31;4866222;29;20041;-87
2023/08/16 19:54:24;;;;;;;10.68;8.45;;;;;;;23.18;100.00;94754.00;4865930;29;20036;-87
2023/08/16 19:56:49;;;;;;;12.93;8.45;;;;;;;23.43;100.00;94763.50;4882697;29;20036;-87
2023/08/16 19:59:15;;;;;;;12.18;7.47;;;;;;;23.33;100.00;94760.53;4865828;29;20041;-87
2023/08/16 20:01:40;;;;;;;14.15;8.70;;;;;;;22.87;100.00;94758.84;4850557;29;20399;-88
2023/08/16 20:04:06;;;;;;;12.63;9.00;;;;;;;22.53;100.00;94758.22;4897977;29;20177;-88
2023/08/16 20:06:31;;;;;;;14.27;9.65;;;;;;;22.50;100.00;94759.66;4900062;29;20122;-88
2023/08/16 20:08:57;;;;;;;15.00;9.40;;;;;;;22.43;100.00;94759.38;4900251;29;20047;-87
2023/08/16 20:11:22;;;;;;;12.43;9.20;;;;;;;22.51;100.00;94760.41;4901357;29;20494;-87
2023/08/16 20:13:48;;;;;;;15.85;9.35;;;;;;;22.61;100.00;94756.53;4899860;29;20029;-87
2023/08/16 20:16:13;;;;;;;12.27;9.65;;;;;;;22.87;100.00;94758.84;4899856;29;20090;-87
2023/08/16 20:18:39;;;;;;;11.15;8.73;;;;;;;22.78;100.00;94753.63;4899676;29;20043;-87
2023/08/16 20:21:05;;;;;;;14.20;10.20;;;;;;;22.53;100.00;94750.97;4899883;29;20514;-87
2023/08/16 20:23:31;;;;;;;14.85;9.98;;;;;;;22.39;100.00;94751.28;4899517;29;20124;-88
2023/08/16 20:25:57;;;;;;;12.80;10.02;;;;;;;22.28;100.00;94753.59;4899573;29;20097;-87
2023/08/16 20:28:22;;;;;;;12.63;9.60;;;;;;;22.60;100.00;94747.75;4884202;29;20055;-87
2023/08/16 20:30:48;;;;;;;13.63;9.73;;;;;;;22.71;100.00;94753.41;4899922;29;20036;-87
2023/08/16 20:33:15;;;;;;;12.00;10.05;;;;;;;22.59;100.00;94748.84;4899671;29;20088;-86
2023/08/16 20:35:41;;;;;;;11.00;9.80;;;;;;;22.57;100.00;94748.41;4883528;29;20040;-86
2023/08/16 20:38:07;;;;;;;14.63;11.18;;;;;;;22.71;100.00;94753.41;4900691;29;20036;-87
2023/08/16 20:40:32;;;;;;;12.15;10.10;;;;;;;22.76;100.00;94747.84;4899709;29;20036;-87
2023/08/16 20:42:58;;;;;;;12.65;10.45;;;;;;;22.85;100.00;94750.41;4900625;29;20044;-87
2023/08/16 20:45:23;;;;;;;15.55;9.98;;;;;;;22.57;100.00;94746.50;4900611;29;20196;-87
2023/08/16 20:47:48;;;;;;;21.05;11.13;;;;;;;22.26;100.00;94747.06;4899295;29;20032;-86
2023/08/16 20:50:14;;;;;;;14.77;10.65;;;;;;;22.09;100.00;94748.78;4899121;29;20047;-87
2023/08/16 20:52:39;;;;;;;14.25;9.88;;;;;;;22.15;100.00;94752.81;4899307;29;20043;-87
2023/08/16 20:55:05;;;;;;;14.75;10.40;;;;;;;22.22;100.00;94746.94;4899133;29;20063;-86
2023/08/16 20:57:30;;;;;;;12.80;10.70;;;;;;;22.39;100.00;94755.84;4900164;29;20461;-87
2023/08/16 20:59:56;;;;;;;12.63;10.32;;;;;;;22.43;100.00;94757.50;4899258;29;20460;-86
2023/08/16 21:02:22;;;;;;;12.73;10.35;;;;;;;22.47;100.00;94752.28;4884560;29;20036;-87
2023/08/16 21:04:47;;;;;;;16.88;11.07;;;;;;;22.45;100.00;94749.94;4900384;29;20624;-87
2023/08/16 21:07:13;;;;;;;14.65;10.73;;;;;;;22.45;100.00;94746.47;4900446;29;20036;-87
2023/08/16 21:09:38;;;;;;;14.40;11.27;;;;;;;22.38;100.00;94738.28;4884750;29;20358;-87
2023/08/16 21:12:04;;;;;;;12.43;10.57;;;;;;;22.41;100.00;94743.72;4900300;29;20036;-87
2023/08/16 21:14:29;;;;;;;15.63;11.15;;;;;;;22.45;100.00;94741.16;4901605;29;20422;-87
2023/08/16 21:16:55;;;;;;;15.55;10.43;;;;;;;22.53;100.00;94739.53;4900244;29;20032;-87
2023/08/16 21:19:21;;;;;;;16.73;11.15;;;;;;;22.54;100.00;94733.06;4884745;29;20040;-87
2023/08/16 21:21:46;;;;;;;15.27;10.88;;;;;;;22.44;100.00;94727.03;4883566;29;20431;-86
2023/08/16 21:24:13;;;;;;;13.95;10.98;;;;;;;22.26;100.00;94731.03;4898484;29;20406;-86
2023/08/16 21:26:38;;;;;;;16.10;11.75;;;;;;;22.24;100.00;94738.59;4898500;29;20035;-87
2023/08/16 21:29:04;;;;;;;15.00;10.73;;;;;;;22.39;100.00;94734.47;4898350;29;20036;-87
2023/08/16 21:31:32;;;;;;;15.25;11.48;;;;;;;22.39;100.00;94731.81;4882901;29;20432;-87
2023/08/16 21:33:57;;;;;;;19.65;12.73;;;;;;;21.77;100.00;94731.75;4882353;29;20494;-87
2023/08/16 21:36:23;;;;;;;14.52;11.80;;;;;;;21.59;100.00;94738.00;4898169;29;20115;-87
2023/08/16 21:38:48;;;;;;;13.23;11.02;;;;;;;21.82;100.00;94735.00;4898479;29;20095;-87
2023/08/16 21:41:13;;;;;;;14.63;10.40;;;;;;;21.94;100.00;94728.09;4898495;29;20137;-87
2023/08/16 21:43:39;;;;;;;18.48;11.23;;;;;;;21.50;100.00;94723.97;4898179;29;20036;-87
2023/08/16 21:46:04;;;;;;;13.90;10.93;;;;;;;21.44;100.00;94727.97;4898147;29;20464;-87
2023/08/16 21:48:30;;;;;;;14.20;11.30;;;;;;;21.65;100.00;94724.44;4898321;29;20043;-87
2023/08/16 21:50:55;;;;;;;15.77;11.82;;;;;;;21.76;100.00;94725.63;4899365;29;20041;-87
2023/08/16 21:53:21;;;;;;;21.30;12.52;;;;;;;21.63;100.00;94726.69;4898324;29;20127;-86
2023/08/16 21:55:46;;;;;;;18.17;12.98;;;;;;;21.48;100.00;94726.19;4899071;29;20041;-87
2023/08/16 21:58:12;;;;;;;15.68;12.48;;;;;;;21.36;100.00;94732.25;4899097;29;20139;-87
2023/08/16 22:00:37;;;;;;;14.55;12.23;;;;;;;21.43;100.00;94729.06;4898204;29;20036;-88
2023/08/16 22:03:03;;;;;;;14.60;12.23;;;;;;;21.41;100.00;94732.03;4899153;29;20469;-87
2023/08/16 22:05:29;;;;;;;15.30;12.15;;;;;;;21.40;100.00;94721.72;4882426;29;20039;-87
2023/08/16 22:07:54;;;;;;;17.23;12.35;;;;;;;21.39;100.00;94722.84;4898198;29;20120;-87
2023/08/16 22:10:20;;;;;;;16.52;12.57;;;;;;;21.60;100.00;94725.47;4866795;29;20036;-87
2023/08/16 22:12:45;;;;;;;18.58;11.95;;;;;;;21.33;100.00;94728.34;4882578;29;20391;-87
2023/08/16 22:15:11;;;;;;;15.13;12.15;;;;;;;21.52;100.00;94732.44;4882618;29;20319;-87
2023/08/16 22:17:37;;;;;;;15.77;12.52;;;;;;;21.57;100.00;94737.56;4882418;29;20036;-87
2023/08/16 22:20:04;;;;;;;17.02;12.23;;;;;;;21.50;100.00;94745.28;4882160;29;20111;-87
2023/08/16 22:22:30;;;;;;;15.95;11.98;;;;;;;21.62;100.00;94747.25;4882160;29;20071;-87
2023/08/16 22:24:56;;;;;;;16.02;11.82;;;;;;;21.54;100.00;94745.41;4882203;29;20036;-86
2023/08/16 22:27:21;;;;;;;15.52;11.82;;;;;;;21.74;100.00;94749.19;4898826;29;20541;-86
2023/08/16 22:29:46;;;;;;;17.17;12.30;;;;;;;21.67;100.00;94748.94;4882007;29;20041;-86
2023/08/16 22:32:12;;;;;;;13.38;11.35;;;;;;;21.79;100.00;94759.63;4881887;29;20040;-87
2023/08/16 22:34:37;;;;;;;14.90;11.77;;;;;;;21.49;100.00;94749.06;4898890;29;20037;-87
2023/08/16 22:37:03;;;;;;;13.50;11.57;;;;;;;21.39;100.00;94747.59;4882471;29;20044;-86
2023/08/16 22:39:28;;;;;;;15.85;12.05;;;;;;;21.53;100.00;94750.00;4898748;29;20036;-87
2023/08/16 22:41:53;;;;;;;13.90;11.82;;;;;;;21.66;100.00;94755.38;4882099;29;20051;-86
2023/08/16 22:44:19;;;;;;;13.18;11.43;;;;;;;21.57;100.00;94761.53;4881872;29;20040;-87
2023/08/16 22:46:44;;;;;;;16.98;12.00;;;;;;;21.72;100.00;94762.84;4884688;29;20047;-86
2023/08/16 22:49:10;;;;;;;16.67;11.85;;;;;;;21.65;100.00;94756.44;4885552;29;20424;-87
2023/08/16 22:51:35;;;;;;;16.17;12.32;;;;;;;21.18;100.00;94755.59;4902627;29;20097;-87
2023/08/16 22:54:01;;;;;;;13.73;11.65;;;;;;;21.09;100.00;94760.19;4885723;29;20036;-87
2023/08/16 22:56:26;;;;;;;17.85;12.35;;;;;;;20.97;100.00;94767.03;4885901;29;20335;-87
2023/08/16 22:58:51;;;;;;;16.42;12.82;;;;;;;21.16;100.00;94758.59;4870396;29;20028;-86
2023/08/16 23:01:17;;;;;;;14.52;12.10;;;;;;;21.30;100.00;94762.84;4885230;29;20041;-86
2023/08/16 23:03:42;;;;;;;14.27;12.00;;;;;;;21.38;100.00;94747.94;4885499;29;20045;-86
2023/08/16 23:06:09;;;;;;;16.80;12.07;;;;;;;21.49;100.00;94750.97;4869632;29;20040;-87
2023/08/16 23:08:34;;;;;;;16.17;11.95;;;;;;;21.66;100.00;94753.50;4885610;29;20116;-87
2023/08/16 23:10:59;;;;;;;14.43;11.32;;;;;;;21.78;100.00;94759.97;4885507;29;20032;-87
2023/08/16 23:13:25;;;;;;;16.35;11.13;;;;;;;21.65;100.00;94754.56;4885076;29;20039;-87
2023/08/16 23:15:50;;;;;;;17.25;12.65;;;;;;;21.53;100.00;94759.84;4885819;29;20059;-87
2023/08/16 23:18:15;;;;;;;16.75;12.27;;;;;;;21.35;100.00;94753.91;4870214;29;20100;-86
2023/08/16 23:20:41;;;;;;;16.40;11.48;;;;;;;21.57;100.00;94755.41;4885112;29;20036;-86
2023/08/16 23:23:08;;;;;;;14.63;11.77;;;;;;;21.62;100.00;94755.22;4885081;29;20036;-87
2023/08/16 23:25:35;;;;;;;16.85;12.73;;;;;;;21.06;100.00;94758.97;4885427;29;20032;-87
2023/08/16 23:28:00;;;;;;;19.98;14.10;;;;;;;20.73;100.00;94768.41;4901072;29;20037;-87
2023/08/16 23:30:26;;;;;;;20.98;14.52;;;;;;;20.56;100.00;94773.81;4885311;29;20040;-86
2023/08/16 23:32:51;;;;;;;18.38;13.77;;;;;;;20.52;100.00;94767.59;4884768;29;20032;-87
2023/08/16 23:35:17;;;;;;;15.70;13.13;;;;;;;20.75;100.00;94768.84;4869630;29;20092;-87
2023/08/16 23:37:42;;;;;;;14.45;12.90;;;;;;;20.93;100.00;94758.13;4885260;29;20092;-87
2023/08/16 23:40:08;;;;;;;15.40;12.52;;;;;;;20.99;100.00;94766.69;4884981;29;20140;-87
2023/08/16 23:42:34;;;;;;;22.40;13.50;;;;;;;21.07;100.00;94762.41;4884843;29;20055;-87
2023/08/16 23:44:59;;;;;;;16.50;12.48;;;;;;;20.93;100.00;94762.69;4901532;29;20092;-87
2023/08/16 23:47:25;;;;;;;18.63;13.15;;;;;;;20.69;100.00;94756.84;4884926;29;20036;-87
2023/08/16 23:49:50;;;;;;;16.75;12.60;;;;;;;20.77;100.00;94753.34;4884798;29;20151;-86
2023/08/16 23:52:16;;;;;;;17.33;12.75;;;;;;;20.87;100.00;94749.56;4901341;29;20036;-87
2023/08/16 23:54:41;;;;;;;15.95;13.13;;;;;;;20.85;100.00;94750.97;4869166;29;20044;-87
2023/08/16 23:57:07;;;;;;;19.45;13.10;;;;;;;20.85;100.00;94751.75;4883958;29;20119;-87
2023/08/16 23:59:32;;;;;;;17.95;13.45;;;;;;;20.80;100.00;94746.59;4884511;29;20111;-87
